Buoy 13526

sailwx.info

Track history (hours):
 
Tides and Currents Weather Stations Pressure Air Temp Water Temp Dewpoint Dewpoint Depression Visibility Wind Speed Wind Dir Waves Ship Positions

Drifting buoy 13526

Last reported at 2017-Feb-27 13:05 UTC. Time now 2017-Feb-27 14:21 UTC.
Position N 26°40' W 069°36'.

Water temperature 24.2 ° C

Date/timePositionNaut miles runAvg speedWind from/ knotsBaromVisibWave heightAir tempDewpointWater temp
2017-Feb-27 13:05N 26°40' W 069°36'0 0.0 24.2
2017-Feb-27 13:03N 26°40' W 069°36'1 0.6 24.2
2017-Feb-27 11:48N 26°40' W 069°35'0 0.0 24.2
2017-Feb-27 11:43N 26°40' W 069°35'0 0.0 24.2
2017-Feb-27 11:33N 26°40' W 069°35'0 0.0 24.2
2017-Feb-27 11:29N 26°40' W 069°35'1 0.6 24.2
2017-Feb-27 10:07N 26°39' W 069°35'110.7 24.2
2017-Feb-27 10:04N 26°39' W 069°34'0 0.0 24.2
2017-Feb-27 09:51N 26°39' W 069°34'0 0.0 24.2
2017-Feb-27 09:45N 26°39' W 069°34'1 0.3 24.2
2017-Feb-27 08:06N 26°39' W 069°34'116.1
2017-Feb-27 08:04N 26°39' W 069°33'1 7.2 24.2
2017-Feb-27 07:59N 26°40' W 069°33'1 0.3 24.2
2017-Feb-27 06:24N 26°40' W 069°34'1 0.4 24.2
2017-Feb-27 03:07N 26°39' W 069°32'1 0.8 24.3
2017-Feb-27 02:25N 26°39' W 069°32'0 0.0 24.3
2017-Feb-27 02:22N 26°39' W 069°32'0 0.0 24.3
2017-Feb-27 02:16N 26°39' W 069°32'0 0.0 24.3
2017-Feb-27 01:31N 26°39' W 069°32'1 5.1 24.4
2017-Feb-27 01:24N 26°38' W 069°32'0 0.0 24.4
2017-Feb-27 00:58N 26°38' W 069°32'1 2.1 24.4
2017-Feb-27 00:41N 26°39' W 069°32'0 0.0 24.4
2017-Feb-27 00:38N 26°39' W 069°32'1 1.6 24.4
2017-Feb-27 00:18N 26°39' W 069°31'0 0.0 24.4
2017-Feb-26 23:47N 26°39' W 069°31'0 0.0 24.4
2017-Feb-26 23:23N 26°39' W 069°31'0 0.0 24.5
2017-Feb-26 23:18N 26°39' W 069°31'1 6.4 24.5
2017-Feb-26 23:13N 26°39' W 069°32'0 0.0 24.5
2017-Feb-26 22:43N 26°39' W 069°32'0 0.0 24.5
2017-Feb-26 22:35N 26°39' W 069°32'0 0.0 24.5
2017-Feb-26 21:48N 26°39' W 069°32'1 3.3 24.6
2017-Feb-26 21:37N 26°40' W 069°32'0 0.0
2017-Feb-26 21:35N 26°40' W 069°32'0 0.0 24.6
2017-Feb-26 21:18N 26°40' W 069°32'1 0.5 24.7
2017-Feb-26 19:39N 26°39' W 069°32'0 0.0 24.7
2017-Feb-26 19:36N 26°39' W 069°32'110.7 24.7
2017-Feb-26 19:33N 26°39' W 069°33'0 0.0 24.7
2017-Feb-26 17:59N 26°39' W 069°33'118.4 24.6
2017-Feb-26 17:55N 26°38' W 069°34'0 0.0 24.6
2017-Feb-26 15:55N 26°38' W 069°34'110.7 24.8
2017-Feb-26 15:52N 26°38' W 069°35'0 0.0 24.8
2017-Feb-26 15:06N 26°38' W 069°35'0 0.0 24.6
2017-Feb-26 14:15N 26°38' W 069°35'1 3.6 24.4
2017-Feb-26 14:06N 26°38' W 069°35'1 1.2 24.4
2017-Feb-26 13:37N 26°38' W 069°35'0 0.0 24.3
2017-Feb-26 13:28N 26°38' W 069°35'1 6.0 24.3
2017-Feb-26 13:22N 26°37' W 069°35'1 0.6 24.3
2017-Feb-26 12:29N 26°37' W 069°36'0 0.0
2017-Feb-26 12:13N 26°37' W 069°36'0 0.0 24.2
2017-Feb-26 12:02N 26°37' W 069°36'0 0.0 24.2
2017-Feb-26 11:59N 26°37' W 069°36'0 0.0 24.2
2017-Feb-26 11:56N 26°37' W 069°36'1 7.2 24.2
2017-Feb-26 11:51N 26°37' W 069°36'0 0.0 24.2
2017-Feb-26 10:31N 26°37' W 069°36'0 0.0 24.2
2017-Feb-26 10:24N 26°37' W 069°36'0 0.0 24.2
2017-Feb-26 10:21N 26°37' W 069°36'0 0.0 24.2
2017-Feb-26 10:15N 26°37' W 069°36'1 2.8 24.2
2017-Feb-26 09:58N 26°36' W 069°37'0 0.0 24.2
2017-Feb-26 09:55N 26°36' W 069°37'0 0.0 24.2
2017-Feb-26 08:44N 26°36' W 069°37'1 6.0 24.2
2017-Feb-26 08:38N 26°35' W 069°37'0 0.0 24.2
2017-Feb-26 08:23N 26°35' W 069°37'0 0.0 24.2
2017-Feb-26 08:20N 26°35' W 069°37'114.8 24.2
2017-Feb-26 08:15N 26°35' W 069°35'1 0.7 24.2
2017-Feb-26 06:40N 26°35' W 069°37'1 9.7 24.2
2017-Feb-26 06:35N 26°35' W 069°37'136.0 24.2
2017-Feb-26 06:34N 26°35' W 069°37'0 0.0 24.2
2017-Feb-26 03:30N 26°35' W 069°37'0 0.0 24.3
2017-Feb-26 03:27N 26°35' W 069°37'1 1.1 24.3
2017-Feb-26 02:45N 26°34' W 069°38'0 0.0 24.3
2017-Feb-26 02:42N 26°34' W 069°38'1 0.6 24.3
2017-Feb-26 01:52N 26°34' W 069°38'1 4.0 24.3
2017-Feb-26 01:44N 26°34' W 069°38'0 0.0 24.3
2017-Feb-26 01:06N 26°34' W 069°38'0 0.0 24.3
2017-Feb-26 01:03N 26°34' W 069°38'1 6.4 24.3
2017-Feb-26 00:58N 26°34' W 069°38'1 4.5 24.3
2017-Feb-26 00:50N 26°35' W 069°38'0 0.0 24.3
2017-Feb-26 00:06N 26°35' W 069°38'1 1.8 24.3
2017-Feb-25 23:46N 26°34' W 069°38'0 0.0 24.3
2017-Feb-25 23:32N 26°34' W 069°38'0 0.0 24.3
2017-Feb-25 23:29N 26°34' W 069°38'0 0.0 24.3
2017-Feb-25 23:23N 26°34' W 069°38'0 0.0 24.3
2017-Feb-25 23:15N 26°34' W 069°38'0 0.0 24.3
2017-Feb-25 23:06N 26°34' W 069°38'1 1.1 24.3
2017-Feb-25 22:06N 26°34' W 069°40'116.1 24.4
2017-Feb-25 22:03N 26°34' W 069°40'0 0.0 24.4
2017-Feb-25 21:51N 26°34' W 069°40'0 0.0 24.4
2017-Feb-25 21:48N 26°34' W 069°40'1 3.4 24.4
2017-Feb-25 21:34N 26°34' W 069°40'221.0 24.4
2017-Feb-25 21:28N 26°32' W 069°41'0 0.0 24.4
2017-Feb-25 20:28N 26°32' W 069°41'0 0.0 24.4
2017-Feb-25 19:53N 26°32' W 069°41'0 0.0 24.4
2017-Feb-25 19:50N 26°32' W 069°41'1 5.4 24.4
2017-Feb-25 19:44N 26°32' W 069°41'1 0.8 24.4
2017-Feb-25 18:05N 26°31' W 069°42'2112.7 24.3
2017-Feb-25 18:04N 26°29' W 069°43'1 0.3 24.3
2017-Feb-25 16:12N 26°29' W 069°43'0 0.0 24.2
2017-Feb-25 15:29N 26°29' W 069°43'0 0.0 24.2
2017-Feb-25 15:24N 26°29' W 069°43'112.0 24.2
2017-Feb-25 15:21N 26°29' W 069°43'0 0.0 24.2
2017-Feb-25 14:37N 26°29' W 069°43'1 6.0 24.2
2017-Feb-25 14:31N 26°28' W 069°43'0 0.0 24.2
2017-Feb-25 13:46N 26°28' W 069°43'1 0.6 24.2
2017-Feb-25 12:53N 26°28' W 069°44'1 2.2 24.2
2017-Feb-25 12:37N 26°28' W 069°44'0 0.0 24.2
2017-Feb-25 12:07N 26°28' W 069°44'1 1.1 24.1
2017-Feb-25 10:58N 26°26' W 069°44'1 5.4 24.1
2017-Feb-25 10:52N 26°26' W 069°44'1 4.6 24.1
2017-Feb-25 10:45N 26°26' W 069°44'0 0.0 24.1
2017-Feb-25 10:32N 26°26' W 069°44'1 4.6 24.1
2017-Feb-25 10:25N 26°26' W 069°45'1 4.0 24.1
2017-Feb-25 10:07N 26°25' W 069°45'0 0.0 24.1
2017-Feb-25 09:16N 26°25' W 069°45'0 0.0 24.1
2017-Feb-25 09:13N 26°25' W 069°45'0 0.0 24.1
2017-Feb-25 09:09N 26°25' W 069°45'0 0.0 24.1
2017-Feb-25 08:34N 26°25' W 069°45'0 0.0 24.1
2017-Feb-25 08:29N 26°25' W 069°45'1 0.8 24.1
2017-Feb-25 06:52N 26°24' W 069°46'0 0.0 24.1
2017-Feb-25 06:46N 26°24' W 069°46'3 1.0 24.1
2017-Feb-25 03:47N 26°21' W 069°46'0 0.0 24.1
2017-Feb-25 03:02N 26°21' W 069°46'1 0.6 24.1
2017-Feb-25 02:06N 26°20' W 069°46'116.1 24.1
2017-Feb-25 02:03N 26°20' W 069°47'0 0.0 24.1
2017-Feb-25 01:23N 26°20' W 069°47'0 0.0 24.1
2017-Feb-25 01:20N 26°20' W 069°47'1 0.9 24.1
2017-Feb-25 00:29N 26°19' W 069°46'1 9.7 24.1
2017-Feb-25 00:24N 26°19' W 069°47'0 0.0 24.1
2017-Feb-24 23:43N 26°19' W 069°47'0 0.0 24.1
2017-Feb-24 23:38N 26°19' W 069°47'1 9.0 24.1
2017-Feb-24 23:34N 26°18' W 069°47'0 0.0
2017-Feb-24 22:37N 26°18' W 069°47'0 0.0 24.1
2017-Feb-24 22:31N 26°18' W 069°47'1 7.2 24.1
2017-Feb-24 22:26N 26°17' W 069°47'0 0.0 24.1
2017-Feb-24 22:06N 26°17' W 069°47'0 0.0 24.1
2017-Feb-24 22:02N 26°17' W 069°47'0 0.0 24.1
2017-Feb-24 21:59N 26°17' W 069°47'0 0.0 24.1
2017-Feb-24 21:56N 26°17' W 069°47'1 0.6 24.1
2017-Feb-24 20:56N 26°17' W 069°47'1 4.5 24.1
2017-Feb-24 20:48N 26°16' W 069°47'0 0.0 24.1
2017-Feb-24 20:04N 26°16' W 069°47'0 0.0 24.1
2017-Feb-24 20:01N 26°16' W 069°47'1 7.2 24.1
2017-Feb-24 19:51N 26°15' W 069°47'0 0.0 24.1
2017-Feb-24 18:23N 26°15' W 069°47'0 0.0 24.1
2017-Feb-24 18:19N 26°15' W 069°47'110.8 24.1
2017-Feb-24 18:16N 26°15' W 069°46'1 0.2 24.1
2017-Feb-24 15:49N 26°14' W 069°46'1 1.0 24.0
2017-Feb-24 14:59N 26°14' W 069°47'1 6.9 24.0
2017-Feb-24 14:52N 26°13' W 069°47'0 0.0 23.9
2017-Feb-24 14:06N 26°13' W 069°47'1 9.0 23.9
2017-Feb-24 14:02N 26°13' W 069°47'0 0.0 23.9
2017-Feb-24 13:14N 26°13' W 069°47'1 3.2 23.9
2017-Feb-24 12:59N 26°12' W 069°48'1 0.8 23.9
2017-Feb-24 12:19N 26°12' W 069°47'118.5 23.9
2017-Feb-24 12:15N 26°11' W 069°49'0 0.0 23.9
2017-Feb-24 11:22N 26°11' W 069°49'0 0.0 23.9
2017-Feb-24 11:19N 26°11' W 069°49'1 1.0 23.9
2017-Feb-24 10:43N 26°11' W 069°49'118.5 23.9
2017-Feb-24 10:39N 26°10' W 069°50'0 0.0 23.9
2017-Feb-24 09:47N 26°10' W 069°50'0 0.0 24.0
2017-Feb-24 09:44N 26°10' W 069°50'1 9.0 24.0
2017-Feb-24 09:40N 26°10' W 069°50'1 0.9 24.0
2017-Feb-24 08:46N 26°09' W 069°49'0 0.0 24.0
2017-Feb-24 08:43N 26°09' W 069°49'3 1.8 24.0
2017-Feb-24 07:05N 26°06' W 069°49'1 7.2 24.0
2017-Feb-24 07:00N 26°07' W 069°49'6120.7 24.0
2017-Feb-24 06:57N 26°01' W 069°46'0 0.0 24.0
2017-Feb-24 03:19N 26°01' W 069°46'0 0.0
2017-Feb-24 02:33N 26°01' W 069°46'0 0.0 24.1
2017-Feb-24 02:27N 26°01' W 069°46'1 1.8 24.1
2017-Feb-24 01:44N 26°00' W 069°46'118.5 24.1
2017-Feb-24 01:40N 25°59' W 069°44'0 0.0 24.1
2017-Feb-24 00:52N 25°59' W 069°44'1 8.1 24.1
2017-Feb-24 00:46N 25°59' W 069°44'0 0.0 24.1
2017-Feb-24 00:14N 25°59' W 069°44'1 2.2 24.1
2017-Feb-23 23:52N 25°58' W 069°43'1 1.0 24.1
2017-Feb-23 23:02N 25°58' W 069°43'1 6.5 24.1
2017-Feb-23 22:57N 25°58' W 069°42'0 0.0 24.1
2017-Feb-23 22:36N 25°58' W 069°42'1 1.6 24.1
2017-Feb-23 22:14N 25°57' W 069°42'0 0.0 24.1
2017-Feb-23 22:07N 25°57' W 069°42'1 1.6 24.1
2017-Feb-23 21:22N 25°56' W 069°41'1 9.3 24.1
2017-Feb-23 21:14N 25°56' W 069°40'0 0.0 24.1
2017-Feb-23 20:13N 25°56' W 069°40'2 1.2 24.1
2017-Feb-23 18:35N 25°55' W 069°38'0 0.0 24.1
2017-Feb-23 18:32N 25°55' W 069°38'0 0.0 24.1
2017-Feb-23 18:27N 25°55' W 069°38'4 1.2 24.1
2017-Feb-23 15:19N 25°53' W 069°34'0 0.0 24.0
2017-Feb-23 15:14N 25°53' W 069°34'2 2.4 24.0
2017-Feb-23 14:33N 25°52' W 069°33'0 0.0 24.0
2017-Feb-23 14:30N 25°52' W 069°33'0 0.0 24.0
2017-Feb-23 14:25N 25°52' W 069°33'0 0.0 24.0
2017-Feb-23 13:36N 25°52' W 069°33'124.2 24.1
2017-Feb-23 13:34N 25°51' W 069°32'0 0.0 24.1
2017-Feb-23 12:50N 25°51' W 069°32'1 6.5 24.0
2017-Feb-23 12:45N 25°51' W 069°32'0 0.0 24.0
2017-Feb-23 12:38N 25°51' W 069°32'0 0.0 24.0
2017-Feb-23 12:32N 25°51' W 069°32'0 0.0 24.0
2017-Feb-23 12:27N 25°51' W 069°32'2 3.5 24.0
2017-Feb-23 11:52N 25°50' W 069°30'114.8 24.0
2017-Feb-23 11:47N 25°50' W 069°31'1 4.1 24.0
2017-Feb-23 11:39N 25°50' W 069°31'0 0.0 24.0
2017-Feb-23 10:52N 25°50' W 069°31'1 9.7 24.0
2017-Feb-23 10:47N 25°50' W 069°30'0 0.0 24.0
2017-Feb-23 10:17N 25°50' W 069°30'0 0.0 24.0
2017-Feb-23 10:11N 25°50' W 069°30'0 0.0 24.0
2017-Feb-23 10:06N 25°50' W 069°30'1 8.1 24.0
2017-Feb-23 10:00N 25°49' W 069°29'1 0.5 24.0
2017-Feb-23 08:52N 25°49' W 069°29'1 2.2 24.0
2017-Feb-23 08:37N 25°49' W 069°29'2 1.3 24.0
2017-Feb-23 07:16N 25°49' W 069°28'0 0.0
2017-Feb-23 07:13N 25°49' W 069°28'546.8 24.0
2017-Feb-23 07:07N 25°47' W 069°23'0 0.0 24.0
2017-Feb-23 02:52N 25°47' W 069°23'0 0.0 24.0
2017-Feb-23 02:49N 25°47' W 069°23'1 1.1 24.0
2017-Feb-23 02:06N 25°47' W 069°22'1 4.1 24.0
2017-Feb-23 01:58N 25°47' W 069°22'0 0.0 24.0
2017-Feb-23 01:12N 25°47' W 069°22'1 5.4 24.0
2017-Feb-23 01:06N 25°47' W 069°21'0 0.0 24.0
2017-Feb-23 00:42N 25°47' W 069°21'0 0.0 24.0
2017-Feb-23 00:26N 25°47' W 069°21'1 1.6 24.0
2017-Feb-23 00:03N 25°47' W 069°21'1 0.9 24.0
2017-Feb-22 23:27N 25°47' W 069°20'1 2.9 24.0
2017-Feb-22 23:16N 25°47' W 069°20'0 0.0 24.0
2017-Feb-22 23:07N 25°47' W 069°20'0 0.0 24.0
2017-Feb-22 23:02N 25°47' W 069°20'0 0.0 24.0
2017-Feb-22 22:24N 25°47' W 069°20'0 0.0 24.0
2017-Feb-22 22:19N 25°47' W 069°20'1 1.0 24.0
2017-Feb-22 21:47N 25°47' W 069°19'1 3.4 24.0
2017-Feb-22 21:25N 25°47' W 069°18'0 0.0 24.0
2017-Feb-22 20:24N 25°47' W 069°18'1 0.5 24.0
2017-Feb-22 18:46N 25°47' W 069°17'0 0.0 24.1
2017-Feb-22 18:43N 25°47' W 069°17'114.8 24.1
2017-Feb-22 18:38N 25°47' W 069°16'1 0.3 24.1
2017-Feb-22 15:39N 25°48' W 069°16'0 0.0 24.1
2017-Feb-22 15:36N 25°48' W 069°16'0 0.0 24.1
2017-Feb-22 14:51N 25°48' W 069°16'116.1 24.1
2017-Feb-22 14:48N 25°47' W 069°15'0 0.0 24.1
2017-Feb-22 13:59N 25°47' W 069°15'0 0.0 24.1
2017-Feb-22 13:58N 25°47' W 069°15'1 0.7 24.1
2017-Feb-22 13:12N 25°47' W 069°14'1 6.0 24.1
2017-Feb-22 13:06N 25°48' W 069°14'0 0.0 24.1
2017-Feb-22 12:44N 25°48' W 069°14'0 0.0 24.1
2017-Feb-22 12:39N 25°48' W 069°14'0 0.0 24.1
2017-Feb-22 12:12N 25°48' W 069°14'0 0.0 24.1
2017-Feb-22 11:06N 25°48' W 069°14'124.2 24.1
2017-Feb-22 11:04N 25°47' W 069°14'0 0.0 24.1
2017-Feb-22 10:57N 25°47' W 069°14'0 0.0 24.1
2017-Feb-22 10:48N 25°47' W 069°14'0 0.0 24.1
2017-Feb-22 10:31N 25°47' W 069°14'1 0.8 24.1
2017-Feb-22 09:06N 25°47' W 069°13'116.2 24.1
2017-Feb-22 09:02N 25°47' W 069°11'0 0.0 24.1
2017-Feb-22 08:59N 25°47' W 069°11'0 0.0 24.1
2017-Feb-22 07:22N 25°47' W 069°11'438.3 24.1
2017-Feb-22 07:16N 25°48' W 069°07'0 0.0 24.1
2017-Feb-22 03:14N 25°48' W 069°07'1 4.1 24.2
2017-Feb-22 03:06N 25°48' W 069°07'1 2.0 24.2
2017-Feb-22 02:28N 25°49' W 069°05'0 0.0 24.2
2017-Feb-22 02:25N 25°49' W 069°05'1 4.6 24.2
2017-Feb-22 02:18N 25°49' W 069°05'0 0.0 24.2
2017-Feb-22 01:34N 25°49' W 069°05'1 8.2 24.2
2017-Feb-22 01:25N 25°49' W 069°04'0 0.0 24.2
2017-Feb-22 00:46N 25°49' W 069°04'112.0 24.2
2017-Feb-22 00:43N 25°50' W 069°04'0 0.0 24.2
2017-Feb-22 00:19N 25°50' W 069°04'1 9.7 24.2
2017-Feb-22 00:14N 25°49' W 069°03'1 2.1 24.2
2017-Feb-21 23:51N 25°50' W 069°02'0 0.0 24.2
2017-Feb-21 23:47N 25°50' W 069°02'0 0.0 24.2
2017-Feb-21 23:41N 25°50' W 069°02'0 0.0 24.2
2017-Feb-21 23:34N 25°50' W 069°02'1 0.6 24.2
2017-Feb-21 22:39N 25°50' W 069°02'0 0.0 24.2
2017-Feb-21 22:30N 25°50' W 069°02'1 2.1 24.2
2017-Feb-21 22:13N 25°50' W 069°02'1 2.7 24.2
2017-Feb-21 22:01N 25°50' W 069°01'1 0.9 24.2
2017-Feb-21 20:38N 25°51' W 069°00'0 0.0 24.2
2017-Feb-21 20:35N 25°51' W 069°00'2 0.9 24.2
2017-Feb-21 18:52N 25°52' W 068°59'110.8 24.3
2017-Feb-21 18:49N 25°52' W 068°58'3 1.0 24.3
2017-Feb-21 15:57N 25°55' W 068°56'1 1.2 24.3
2017-Feb-21 15:15N 25°55' W 068°56'1 6.5 24.3
2017-Feb-21 15:10N 25°55' W 068°56'1 0.9 24.3
2017-Feb-21 14:18N 25°56' W 068°57'1 8.1 24.3
2017-Feb-21 14:12N 25°55' W 068°56'1 1.2 24.3
2017-Feb-21 13:33N 25°56' W 068°56'0 0.0 24.2
2017-Feb-21 13:29N 25°56' W 068°56'1 1.5 24.2
2017-Feb-21 12:57N 25°56' W 068°55'1 7.2 24.2
2017-Feb-21 12:52N 25°56' W 068°55'0 0.0 24.2
2017-Feb-21 12:47N 25°56' W 068°55'0 0.0 24.2
2017-Feb-21 12:37N 25°56' W 068°55'1 0.8 24.2
2017-Feb-21 11:20N 25°56' W 068°54'112.0 24.2
2017-Feb-21 11:17N 25°56' W 068°54'1 3.6 24.2
2017-Feb-21 11:08N 25°56' W 068°53'0 0.0 24.2
2017-Feb-21 10:52N 25°56' W 068°53'1 0.4 24.2
2017-Feb-21 09:39N 25°56' W 068°53'1 6.5 24.2
2017-Feb-21 09:34N 25°56' W 068°52'1 1.8 24.2
2017-Feb-21 09:16N 25°56' W 068°53'112.9 24.2
2017-Feb-21 09:11N 25°56' W 068°52'0 0.0 24.2
2017-Feb-21 07:36N 25°56' W 068°52'321.9 24.2
2017-Feb-21 07:27N 25°57' W 068°48'0 0.0 24.2
2017-Feb-21 03:31N 25°57' W 068°48'1 0.8 24.1
2017-Feb-21 02:48N 25°58' W 068°48'0 0.0 24.1
2017-Feb-21 02:45N 25°58' W 068°48'1 0.6 24.1
2017-Feb-21 01:53N 25°58' W 068°47'0 0.0 24.1
2017-Feb-21 01:48N 25°58' W 068°47'1 1.6 24.1
2017-Feb-21 01:07N 25°58' W 068°46'1 6.5 24.1
2017-Feb-21 01:02N 25°58' W 068°47'1 2.2 24.1
2017-Feb-21 00:28N 25°58' W 068°46'116.1 24.1
2017-Feb-21 00:25N 25°58' W 068°46'1 2.7 24.1
2017-Feb-21 00:13N 25°58' W 068°46'212.1 24.1
2017-Feb-21 00:05N 25°59' W 068°44'0 0.0 24.1
2017-Feb-20 22:47N 25°59' W 068°44'1 6.5 24.1
2017-Feb-20 22:42N 25°59' W 068°44'0 0.0 24.1
2017-Feb-20 22:36N 25°59' W 068°44'0 0.0 24.2
2017-Feb-20 22:30N 25°59' W 068°44'2 1.4 24.2
2017-Feb-20 21:03N 26°00' W 068°42'0 0.0 24.2
2017-Feb-20 20:46N 26°00' W 068°42'1 0.8 24.2
2017-Feb-20 19:06N 26°01' W 068°41'220.1 24.4
2017-Feb-20 19:00N 26°02' W 068°40'1 0.5 24.4
2017-Feb-20 17:22N 26°03' W 068°39'0 0.0
2017-Feb-20 16:16N 26°03' W 068°39'0 0.0 24.4
2017-Feb-20 15:30N 26°03' W 068°39'0 0.0 24.4
2017-Feb-20 14:41N 26°03' W 068°39'0 0.0 24.3
2017-Feb-20 14:35N 26°03' W 068°39'0 0.0 24.3
2017-Feb-20 13:47N 26°03' W 068°39'1 1.1 24.3
2017-Feb-20 13:04N 26°04' W 068°38'1 6.0 24.3
2017-Feb-20 12:58N 26°03' W 068°38'0 0.0 24.3
2017-Feb-20 12:51N 26°03' W 068°38'0 0.0 24.3
2017-Feb-20 11:49N 26°03' W 068°38'0 0.0 24.3
2017-Feb-20 11:46N 26°03' W 068°38'1 3.2 24.3
2017-Feb-20 11:31N 26°04' W 068°39'1 3.6 24.3
2017-Feb-20 11:22N 26°04' W 068°38'1 0.5 24.3
2017-Feb-20 10:07N 26°03' W 068°38'1 9.0 24.3
2017-Feb-20 10:03N 26°02' W 068°38'0 0.0 24.3
2017-Feb-20 09:44N 26°02' W 068°38'0 0.0 24.3
2017-Feb-20 09:27N 26°02' W 068°38'110.8 24.3
2017-Feb-20 09:24N 26°02' W 068°39'1 0.9 24.3
2017-Feb-20 08:30N 26°02' W 068°38'1 1.2 24.3
2017-Feb-20 07:49N 26°01' W 068°38'1 6.1 24.2
2017-Feb-20 07:41N 26°01' W 068°37'0 0.0 24.2
2017-Feb-20 06:04N 26°01' W 068°37'2 0.8 24.2
2017-Feb-20 03:03N 25°58' W 068°37'1 0.8 24.2
2017-Feb-20 02:16N 25°58' W 068°37'1 3.6 24.2
2017-Feb-20 02:07N 25°58' W 068°36'0 0.0 24.2
2017-Feb-20 01:28N 25°58' W 068°36'1 6.9 24.2
2017-Feb-20 01:21N 25°57' W 068°35'0 0.0 24.2
2017-Feb-20 00:39N 25°57' W 068°35'118.5 24.2
2017-Feb-20 00:35N 25°56' W 068°34'0 0.0 24.2
2017-Feb-20 00:28N 25°56' W 068°34'0 0.0 24.2
2017-Feb-19 23:03N 25°56' W 068°34'116.2 24.2
2017-Feb-19 23:01N 25°56' W 068°35'211.5 24.2
2017-Feb-19 22:52N 25°56' W 068°33'0 0.0 24.2
2017-Feb-19 21:21N 25°56' W 068°33'0 0.0 24.2
2017-Feb-19 21:12N 25°56' W 068°33'1 2.2 24.2
2017-Feb-19 20:57N 25°56' W 068°34'2 1.0 24.2
2017-Feb-19 19:20N 25°55' W 068°32'1 8.2 24.2
2017-Feb-19 19:11N 25°54' W 068°31'0 0.0 24.2
2017-Feb-19 17:38N 25°54' W 068°31'2 1.4 24.2
2017-Feb-19 15:52N 25°52' W 068°29'1 6.5 24.1
2017-Feb-19 15:47N 25°52' W 068°29'0 0.0 24.1
2017-Feb-19 15:00N 25°52' W 068°29'0 0.0 24.1
2017-Feb-19 14:57N 25°52' W 068°29'1 0.9 24.1
2017-Feb-19 14:15N 25°52' W 068°29'0 0.0 24.1
2017-Feb-19 14:12N 25°52' W 068°29'1 5.4 24.1
2017-Feb-19 14:06N 25°52' W 068°28'0 0.0 24.1
2017-Feb-19 13:18N 25°52' W 068°28'1 0.8 24.0
2017-Feb-19 12:16N 25°51' W 068°28'0 0.0 24.0
2017-Feb-19 11:48N 25°51' W 068°28'112.4 24.0
2017-Feb-19 11:42N 25°50' W 068°26'0 0.0 24.0
2017-Feb-19 11:36N 25°50' W 068°26'0 0.0 24.0
2017-Feb-19 11:31N 25°50' W 068°26'0 0.0 24.0
2017-Feb-19 10:37N 25°50' W 068°26'112.0 24.0
2017-Feb-19 10:34N 25°50' W 068°26'0 0.0 24.0
2017-Feb-19 10:05N 25°50' W 068°26'0 0.0 24.0
2017-Feb-19 10:01N 25°50' W 068°26'0 0.0 24.0
2017-Feb-19 09:56N 25°50' W 068°26'0 0.0 24.0
2017-Feb-19 09:36N 25°50' W 068°26'1 1.4 24.0
2017-Feb-19 09:02N 25°49' W 068°26'1 5.4 24.0
2017-Feb-19 08:56N 25°49' W 068°25'0 0.0 24.0
2017-Feb-19 07:59N 25°49' W 068°25'1 6.9 24.0
2017-Feb-19 07:52N 25°49' W 068°25'0 0.0 24.0
2017-Feb-19 06:18N 25°49' W 068°25'356.2 24.0
2017-Feb-19 06:15N 25°47' W 068°22'0 0.0 24.0
2017-Feb-19 03:23N 25°47' W 068°22'0 0.0 24.1
2017-Feb-19 02:36N 25°47' W 068°22'0 0.0 24.1
2017-Feb-19 02:31N 25°47' W 068°22'1 1.7 24.1
2017-Feb-19 01:48N 25°46' W 068°21'0 0.0 24.1
2017-Feb-19 01:42N 25°46' W 068°21'1 1.1 24.1
2017-Feb-19 00:56N 25°46' W 068°20'1 4.6 24.1
2017-Feb-19 00:49N 25°46' W 068°20'0 0.0 24.1
2017-Feb-18 23:34N 25°46' W 068°20'0 0.0 24.2
2017-Feb-18 23:27N 25°46' W 068°20'0 0.0 24.2
2017-Feb-18 23:23N 25°46' W 068°20'0 0.0 24.2
2017-Feb-18 23:06N 25°46' W 068°20'1 0.9 24.2
2017-Feb-18 21:52N 25°46' W 068°19'0 0.0 24.2
2017-Feb-18 21:46N 25°46' W 068°19'1 4.6 24.2
2017-Feb-18 21:39N 25°46' W 068°18'0 0.0 24.2
2017-Feb-18 21:31N 25°46' W 068°18'1 6.0 24.2
2017-Feb-18 21:25N 25°45' W 068°18'0 0.0
2017-Feb-18 21:06N 25°45' W 068°18'1 0.8 24.3
2017-Feb-18 19:31N 25°46' W 068°17'0 0.0 24.4
2017-Feb-18 19:24N 25°46' W 068°17'1 0.3 24.4
2017-Feb-18 17:50N 25°46' W 068°16'0 0.0 24.3
2017-Feb-18 17:44N 25°46' W 068°16'1 0.4 24.3
2017-Feb-18 16:12N 25°46' W 068°16'0 0.0 24.3
2017-Feb-18 15:21N 25°46' W 068°16'112.0
2017-Feb-18 15:18N 25°46' W 068°16'112.0 24.2
2017-Feb-18 15:15N 25°46' W 068°16'0 0.0 24.2
2017-Feb-18 14:34N 25°46' W 068°16'1 6.5 24.2
2017-Feb-18 14:29N 25°46' W 068°16'0 0.0 24.2
2017-Feb-18 13:40N 25°46' W 068°16'112.0 24.2
2017-Feb-18 13:37N 25°46' W 068°16'0 0.0 24.2
2017-Feb-18 13:29N 25°46' W 068°16'0 0.0 24.2
2017-Feb-18 12:51N 25°46' W 068°16'1 0.8
2017-Feb-18 12:07N 25°46' W 068°16'1 2.0 24.2
2017-Feb-18 11:51N 25°46' W 068°16'110.8 24.2
2017-Feb-18 11:48N 25°46' W 068°16'0 0.0 24.2
2017-Feb-18 11:45N 25°46' W 068°16'0 0.0 24.2
2017-Feb-18 11:10N 25°46' W 068°16'1 0.9 24.2
2017-Feb-18 10:32N 25°47' W 068°16'1 1.9 24.2
2017-Feb-18 10:13N 25°46' W 068°16'1 4.5 24.2
2017-Feb-18 10:05N 25°47' W 068°16'0 0.0 24.2
2017-Feb-18 09:49N 25°47' W 068°16'1 2.1 24.2
2017-Feb-18 09:32N 25°46' W 068°16'1 7.2 24.2
2017-Feb-18 09:27N 25°47' W 068°16'0 0.0 24.2
2017-Feb-18 08:06N 25°47' W 068°16'1 0.3 24.2
2017-Feb-18 06:31N 25°47' W 068°16'1 6.5 24.2
2017-Feb-18 06:26N 25°47' W 068°17'1 0.2 24.2
2017-Feb-18 02:52N 25°47' W 068°17'1 0.7 24.2
2017-Feb-18 02:06N 25°47' W 068°17'1 8.1 24.3
2017-Feb-18 02:02N 25°47' W 068°17'0 0.0 24.3
2017-Feb-18 01:18N 25°47' W 068°17'0 0.0 24.3
2017-Feb-18 01:07N 25°47' W 068°17'1 1.0 24.3
2017-Feb-18 00:30N 25°46' W 068°17'0 0.0 24.3
2017-Feb-18 00:04N 25°46' W 068°17'0 0.0 24.3
2017-Feb-18 00:00N 25°46' W 068°17'1 2.3 24.3
2017-Feb-17 23:44N 25°47' W 068°17'0 0.0 24.4
2017-Feb-17 23:25N 25°47' W 068°17'0 0.0 24.4
2017-Feb-17 23:21N 25°47' W 068°17'0 0.0 24.4
2017-Feb-17 23:12N 25°47' W 068°17'0 0.0 24.4
2017-Feb-17 22:23N 25°47' W 068°17'0 0.0 24.4
2017-Feb-17 22:06N 25°47' W 068°17'110.8 24.4
2017-Feb-17 22:03N 25°47' W 068°17'0 0.0 24.4
2017-Feb-17 21:43N 25°47' W 068°17'0 0.0 24.4
2017-Feb-17 21:40N 25°47' W 068°17'110.8 24.4
2017-Feb-17 21:37N 25°47' W 068°16'1 2.7 24.4
2017-Feb-17 21:19N 25°47' W 068°17'0 0.0 24.4
2017-Feb-17 20:28N 25°47' W 068°17'0 0.0 24.4
2017-Feb-17 19:44N 25°47' W 068°17'0 0.0 24.4
2017-Feb-17 19:41N 25°47' W 068°17'112.4 24.4
2017-Feb-17 19:35N 25°48' W 068°16'0 0.0 24.4
2017-Feb-17 18:03N 25°48' W 068°16'1 6.1 24.4
2017-Feb-17 17:55N 25°49' W 068°16'1 0.3 24.4
2017-Feb-17 15:41N 25°48' W 068°16'126.3 24.4
2017-Feb-17 15:38N 25°49' W 068°16'0 0.0 24.4
2017-Feb-17 14:57N 25°49' W 068°16'1 8.1 24.4
2017-Feb-17 14:51N 25°50' W 068°16'0 0.0 24.4
2017-Feb-17 14:02N 25°50' W 068°16'0 0.0 24.4
2017-Feb-17 13:16N 25°50' W 068°16'0 0.0 24.4
2017-Feb-17 13:10N 25°50' W 068°16'   24.4
Track history (hours):
 
Tides and Currents Weather Stations Pressure Air Temp Water Temp Dewpoint Dewpoint Depression Visibility Wind Speed Wind Dir Waves Ship Positions

Drifting buoy 13526

Last reported at 2017-Feb-27 13:05 UTC. Time now 2017-Feb-27 14:21 UTC.
Position N 26°40' W 069°36'.

Water temperature 24.2 ° C

Date/timePositionNaut miles runAvg speedWind from/ knotsBaromVisibWave heightAir tempDewpointWater temp
2017-Feb-27 13:05N 26°40' W 069°36'0 0.0 24.2
2017-Feb-27 13:03N 26°40' W 069°36'1 0.6 24.2
2017-Feb-27 11:48N 26°40' W 069°35'0 0.0 24.2
2017-Feb-27 11:43N 26°40' W 069°35'0 0.0 24.2
2017-Feb-27 11:33N 26°40' W 069°35'0 0.0 24.2
2017-Feb-27 11:29N 26°40' W 069°35'1 0.6 24.2
2017-Feb-27 10:07N 26°39' W 069°35'110.7 24.2
2017-Feb-27 10:04N 26°39' W 069°34'0 0.0 24.2
2017-Feb-27 09:51N 26°39' W 069°34'0 0.0 24.2
2017-Feb-27 09:45N 26°39' W 069°34'1 0.3 24.2
2017-Feb-27 08:06N 26°39' W 069°34'116.1
2017-Feb-27 08:04N 26°39' W 069°33'1 7.2 24.2
2017-Feb-27 07:59N 26°40' W 069°33'1 0.3 24.2
2017-Feb-27 06:24N 26°40' W 069°34'1 0.4 24.2
2017-Feb-27 03:07N 26°39' W 069°32'1 0.8 24.3
2017-Feb-27 02:25N 26°39' W 069°32'0 0.0 24.3
2017-Feb-27 02:22N 26°39' W 069°32'0 0.0 24.3
2017-Feb-27 02:16N 26°39' W 069°32'0 0.0 24.3
2017-Feb-27 01:31N 26°39' W 069°32'1 5.1 24.4
2017-Feb-27 01:24N 26°38' W 069°32'0 0.0 24.4
2017-Feb-27 00:58N 26°38' W 069°32'1 2.1 24.4
2017-Feb-27 00:41N 26°39' W 069°32'0 0.0 24.4
2017-Feb-27 00:38N 26°39' W 069°32'1 1.6 24.4
2017-Feb-27 00:18N 26°39' W 069°31'0 0.0 24.4
2017-Feb-26 23:47N 26°39' W 069°31'0 0.0 24.4
2017-Feb-26 23:23N 26°39' W 069°31'0 0.0 24.5
2017-Feb-26 23:18N 26°39' W 069°31'1 6.4 24.5
2017-Feb-26 23:13N 26°39' W 069°32'0 0.0 24.5
2017-Feb-26 22:43N 26°39' W 069°32'0 0.0 24.5
2017-Feb-26 22:35N 26°39' W 069°32'0 0.0 24.5
2017-Feb-26 21:48N 26°39' W 069°32'1 3.3 24.6
2017-Feb-26 21:37N 26°40' W 069°32'0 0.0
2017-Feb-26 21:35N 26°40' W 069°32'0 0.0 24.6
2017-Feb-26 21:18N 26°40' W 069°32'1 0.5 24.7
2017-Feb-26 19:39N 26°39' W 069°32'0 0.0 24.7
2017-Feb-26 19:36N 26°39' W 069°32'110.7 24.7
2017-Feb-26 19:33N 26°39' W 069°33'0 0.0 24.7
2017-Feb-26 17:59N 26°39' W 069°33'118.4 24.6
2017-Feb-26 17:55N 26°38' W 069°34'0 0.0 24.6
2017-Feb-26 15:55N 26°38' W 069°34'110.7 24.8
2017-Feb-26 15:52N 26°38' W 069°35'0 0.0 24.8
2017-Feb-26 15:06N 26°38' W 069°35'0 0.0 24.6
2017-Feb-26 14:15N 26°38' W 069°35'1 3.6 24.4
2017-Feb-26 14:06N 26°38' W 069°35'1 1.2 24.4
2017-Feb-26 13:37N 26°38' W 069°35'0 0.0 24.3
2017-Feb-26 13:28N 26°38' W 069°35'1 6.0 24.3
2017-Feb-26 13:22N 26°37' W 069°35'1 0.6 24.3
2017-Feb-26 12:29N 26°37' W 069°36'0 0.0
2017-Feb-26 12:13N 26°37' W 069°36'0 0.0 24.2
2017-Feb-26 12:02N 26°37' W 069°36'0 0.0 24.2
2017-Feb-26 11:59N 26°37' W 069°36'0 0.0 24.2
2017-Feb-26 11:56N 26°37' W 069°36'1 7.2 24.2
2017-Feb-26 11:51N 26°37' W 069°36'0 0.0 24.2
2017-Feb-26 10:31N 26°37' W 069°36'0 0.0 24.2
2017-Feb-26 10:24N 26°37' W 069°36'0 0.0 24.2
2017-Feb-26 10:21N 26°37' W 069°36'0 0.0 24.2
2017-Feb-26 10:15N 26°37' W 069°36'1 2.8 24.2
2017-Feb-26 09:58N 26°36' W 069°37'0 0.0 24.2
2017-Feb-26 09:55N 26°36' W 069°37'0 0.0 24.2
2017-Feb-26 08:44N 26°36' W 069°37'1 6.0 24.2
2017-Feb-26 08:38N 26°35' W 069°37'0 0.0 24.2
2017-Feb-26 08:23N 26°35' W 069°37'0 0.0 24.2
2017-Feb-26 08:20N 26°35' W 069°37'114.8 24.2
2017-Feb-26 08:15N 26°35' W 069°35'1 0.7 24.2
2017-Feb-26 06:40N 26°35' W 069°37'1 9.7 24.2
2017-Feb-26 06:35N 26°35' W 069°37'136.0 24.2
2017-Feb-26 06:34N 26°35' W 069°37'0 0.0 24.2
2017-Feb-26 03:30N 26°35' W 069°37'0 0.0 24.3
2017-Feb-26 03:27N 26°35' W 069°37'1 1.1 24.3
2017-Feb-26 02:45N 26°34' W 069°38'0 0.0 24.3
2017-Feb-26 02:42N 26°34' W 069°38'1 0.6 24.3
2017-Feb-26 01:52N 26°34' W 069°38'1 4.0 24.3
2017-Feb-26 01:44N 26°34' W 069°38'0 0.0 24.3
2017-Feb-26 01:06N 26°34' W 069°38'0 0.0 24.3
2017-Feb-26 01:03N 26°34' W 069°38'1 6.4 24.3
2017-Feb-26 00:58N 26°34' W 069°38'1 4.5 24.3
2017-Feb-26 00:50N 26°35' W 069°38'0 0.0 24.3
2017-Feb-26 00:06N 26°35' W 069°38'1 1.8 24.3
2017-Feb-25 23:46N 26°34' W 069°38'0 0.0 24.3
2017-Feb-25 23:32N 26°34' W 069°38'0 0.0 24.3
2017-Feb-25 23:29N 26°34' W 069°38'0 0.0 24.3
2017-Feb-25 23:23N 26°34' W 069°38'0 0.0 24.3
2017-Feb-25 23:15N 26°34' W 069°38'0 0.0 24.3
2017-Feb-25 23:06N 26°34' W 069°38'1 1.1 24.3
2017-Feb-25 22:06N 26°34' W 069°40'116.1 24.4
2017-Feb-25 22:03N 26°34' W 069°40'0 0.0 24.4
2017-Feb-25 21:51N 26°34' W 069°40'0 0.0 24.4
2017-Feb-25 21:48N 26°34' W 069°40'1 3.4 24.4
2017-Feb-25 21:34N 26°34' W 069°40'221.0 24.4
2017-Feb-25 21:28N 26°32' W 069°41'0 0.0 24.4
2017-Feb-25 20:28N 26°32' W 069°41'0 0.0 24.4
2017-Feb-25 19:53N 26°32' W 069°41'0 0.0 24.4
2017-Feb-25 19:50N 26°32' W 069°41'1 5.4 24.4
2017-Feb-25 19:44N 26°32' W 069°41'1 0.8 24.4
2017-Feb-25 18:05N 26°31' W 069°42'2112.7 24.3
2017-Feb-25 18:04N 26°29' W 069°43'1 0.3 24.3
2017-Feb-25 16:12N 26°29' W 069°43'0 0.0 24.2
2017-Feb-25 15:29N 26°29' W 069°43'0 0.0 24.2
2017-Feb-25 15:24N 26°29' W 069°43'112.0 24.2
2017-Feb-25 15:21N 26°29' W 069°43'0 0.0 24.2
2017-Feb-25 14:37N 26°29' W 069°43'1 6.0 24.2
2017-Feb-25 14:31N 26°28' W 069°43'0 0.0 24.2
2017-Feb-25 13:46N 26°28' W 069°43'1 0.6 24.2
2017-Feb-25 12:53N 26°28' W 069°44'1 2.2 24.2
2017-Feb-25 12:37N 26°28' W 069°44'0 0.0 24.2
2017-Feb-25 12:07N 26°28' W 069°44'1 1.1 24.1
2017-Feb-25 10:58N 26°26' W 069°44'1 5.4 24.1
2017-Feb-25 10:52N 26°26' W 069°44'1 4.6 24.1
2017-Feb-25 10:45N 26°26' W 069°44'0 0.0 24.1
2017-Feb-25 10:32N 26°26' W 069°44'1 4.6 24.1
2017-Feb-25 10:25N 26°26' W 069°45'1 4.0 24.1
2017-Feb-25 10:07N 26°25' W 069°45'0 0.0 24.1
2017-Feb-25 09:16N 26°25' W 069°45'0 0.0 24.1
2017-Feb-25 09:13N 26°25' W 069°45'0 0.0 24.1
2017-Feb-25 09:09N 26°25' W 069°45'0 0.0 24.1
2017-Feb-25 08:34N 26°25' W 069°45'0 0.0 24.1
2017-Feb-25 08:29N 26°25' W 069°45'1 0.8 24.1
2017-Feb-25 06:52N 26°24' W 069°46'0 0.0 24.1
2017-Feb-25 06:46N 26°24' W 069°46'3 1.0 24.1
2017-Feb-25 03:47N 26°21' W 069°46'0 0.0 24.1
2017-Feb-25 03:02N 26°21' W 069°46'1 0.6 24.1
2017-Feb-25 02:06N 26°20' W 069°46'116.1 24.1
2017-Feb-25 02:03N 26°20' W 069°47'0 0.0 24.1
2017-Feb-25 01:23N 26°20' W 069°47'0 0.0 24.1
2017-Feb-25 01:20N 26°20' W 069°47'1 0.9 24.1
2017-Feb-25 00:29N 26°19' W 069°46'1 9.7 24.1
2017-Feb-25 00:24N 26°19' W 069°47'0 0.0 24.1
2017-Feb-24 23:43N 26°19' W 069°47'0 0.0 24.1
2017-Feb-24 23:38N 26°19' W 069°47'1 9.0 24.1
2017-Feb-24 23:34N 26°18' W 069°47'0 0.0
2017-Feb-24 22:37N 26°18' W 069°47'0 0.0 24.1
2017-Feb-24 22:31N 26°18' W 069°47'1 7.2 24.1
2017-Feb-24 22:26N 26°17' W 069°47'0 0.0 24.1
2017-Feb-24 22:06N 26°17' W 069°47'0 0.0 24.1
2017-Feb-24 22:02N 26°17' W 069°47'0 0.0 24.1
2017-Feb-24 21:59N 26°17' W 069°47'0 0.0 24.1
2017-Feb-24 21:56N 26°17' W 069°47'1 0.6 24.1
2017-Feb-24 20:56N 26°17' W 069°47'1 4.5 24.1
2017-Feb-24 20:48N 26°16' W 069°47'0 0.0 24.1
2017-Feb-24 20:04N 26°16' W 069°47'0 0.0 24.1
2017-Feb-24 20:01N 26°16' W 069°47'1 7.2 24.1
2017-Feb-24 19:51N 26°15' W 069°47'0 0.0 24.1
2017-Feb-24 18:23N 26°15' W 069°47'0 0.0 24.1
2017-Feb-24 18:19N 26°15' W 069°47'110.8 24.1
2017-Feb-24 18:16N 26°15' W 069°46'1 0.2 24.1
2017-Feb-24 15:49N 26°14' W 069°46'1 1.0 24.0
2017-Feb-24 14:59N 26°14' W 069°47'1 6.9 24.0
2017-Feb-24 14:52N 26°13' W 069°47'0 0.0 23.9
2017-Feb-24 14:06N 26°13' W 069°47'1 9.0 23.9
2017-Feb-24 14:02N 26°13' W 069°47'0 0.0 23.9
2017-Feb-24 13:14N 26°13' W 069°47'1 3.2 23.9
2017-Feb-24 12:59N 26°12' W 069°48'1 0.8 23.9
2017-Feb-24 12:19N 26°12' W 069°47'118.5 23.9
2017-Feb-24 12:15N 26°11' W 069°49'0 0.0 23.9
2017-Feb-24 11:22N 26°11' W 069°49'0 0.0 23.9
2017-Feb-24 11:19N 26°11' W 069°49'1 1.0 23.9
2017-Feb-24 10:43N 26°11' W 069°49'118.5 23.9
2017-Feb-24 10:39N 26°10' W 069°50'0 0.0 23.9
2017-Feb-24 09:47N 26°10' W 069°50'0 0.0 24.0
2017-Feb-24 09:44N 26°10' W 069°50'1 9.0 24.0
2017-Feb-24 09:40N 26°10' W 069°50'1 0.9 24.0
2017-Feb-24 08:46N 26°09' W 069°49'0 0.0 24.0
2017-Feb-24 08:43N 26°09' W 069°49'3 1.8 24.0
2017-Feb-24 07:05N 26°06' W 069°49'1 7.2 24.0
2017-Feb-24 07:00N 26°07' W 069°49'6120.7 24.0
2017-Feb-24 06:57N 26°01' W 069°46'0 0.0 24.0
2017-Feb-24 03:19N 26°01' W 069°46'0 0.0
2017-Feb-24 02:33N 26°01' W 069°46'0 0.0 24.1
2017-Feb-24 02:27N 26°01' W 069°46'1 1.8 24.1
2017-Feb-24 01:44N 26°00' W 069°46'118.5 24.1
2017-Feb-24 01:40N 25°59' W 069°44'0 0.0 24.1
2017-Feb-24 00:52N 25°59' W 069°44'1 8.1 24.1
2017-Feb-24 00:46N 25°59' W 069°44'0 0.0 24.1
2017-Feb-24 00:14N 25°59' W 069°44'1 2.2 24.1
2017-Feb-23 23:52N 25°58' W 069°43'1 1.0 24.1
2017-Feb-23 23:02N 25°58' W 069°43'1 6.5 24.1
2017-Feb-23 22:57N 25°58' W 069°42'0 0.0 24.1
2017-Feb-23 22:36N 25°58' W 069°42'1 1.6 24.1
2017-Feb-23 22:14N 25°57' W 069°42'0 0.0 24.1
2017-Feb-23 22:07N 25°57' W 069°42'1 1.6 24.1
2017-Feb-23 21:22N 25°56' W 069°41'1 9.3 24.1
2017-Feb-23 21:14N 25°56' W 069°40'0 0.0 24.1
2017-Feb-23 20:13N 25°56' W 069°40'2 1.2 24.1
2017-Feb-23 18:35N 25°55' W 069°38'0 0.0 24.1
2017-Feb-23 18:32N 25°55' W 069°38'0 0.0 24.1
2017-Feb-23 18:27N 25°55' W 069°38'4 1.2 24.1
2017-Feb-23 15:19N 25°53' W 069°34'0 0.0 24.0
2017-Feb-23 15:14N 25°53' W 069°34'2 2.4 24.0
2017-Feb-23 14:33N 25°52' W 069°33'0 0.0 24.0
2017-Feb-23 14:30N 25°52' W 069°33'0 0.0 24.0
2017-Feb-23 14:25N 25°52' W 069°33'0 0.0 24.0
2017-Feb-23 13:36N 25°52' W 069°33'124.2 24.1
2017-Feb-23 13:34N 25°51' W 069°32'0 0.0 24.1
2017-Feb-23 12:50N 25°51' W 069°32'1 6.5 24.0
2017-Feb-23 12:45N 25°51' W 069°32'0 0.0 24.0
2017-Feb-23 12:38N 25°51' W 069°32'0 0.0 24.0
2017-Feb-23 12:32N 25°51' W 069°32'0 0.0 24.0
2017-Feb-23 12:27N 25°51' W 069°32'2 3.5 24.0
2017-Feb-23 11:52N 25°50' W 069°30'114.8 24.0
2017-Feb-23 11:47N 25°50' W 069°31'1 4.1 24.0
2017-Feb-23 11:39N 25°50' W 069°31'0 0.0 24.0
2017-Feb-23 10:52N 25°50' W 069°31'1 9.7 24.0
2017-Feb-23 10:47N 25°50' W 069°30'0 0.0 24.0
2017-Feb-23 10:17N 25°50' W 069°30'0 0.0 24.0
2017-Feb-23 10:11N 25°50' W 069°30'0 0.0 24.0
2017-Feb-23 10:06N 25°50' W 069°30'1 8.1 24.0
2017-Feb-23 10:00N 25°49' W 069°29'1 0.5 24.0
2017-Feb-23 08:52N 25°49' W 069°29'1 2.2 24.0
2017-Feb-23 08:37N 25°49' W 069°29'2 1.3 24.0
2017-Feb-23 07:16N 25°49' W 069°28'0 0.0
2017-Feb-23 07:13N 25°49' W 069°28'546.8 24.0
2017-Feb-23 07:07N 25°47' W 069°23'0 0.0 24.0
2017-Feb-23 02:52N 25°47' W 069°23'0 0.0 24.0
2017-Feb-23 02:49N 25°47' W 069°23'1 1.1 24.0
2017-Feb-23 02:06N 25°47' W 069°22'1 4.1 24.0
2017-Feb-23 01:58N 25°47' W 069°22'0 0.0 24.0
2017-Feb-23 01:12N 25°47' W 069°22'1 5.4 24.0
2017-Feb-23 01:06N 25°47' W 069°21'0 0.0 24.0
2017-Feb-23 00:42N 25°47' W 069°21'0 0.0 24.0
2017-Feb-23 00:26N 25°47' W 069°21'1 1.6 24.0
2017-Feb-23 00:03N 25°47' W 069°21'1 0.9 24.0
2017-Feb-22 23:27N 25°47' W 069°20'1 2.9 24.0
2017-Feb-22 23:16N 25°47' W 069°20'0 0.0 24.0
2017-Feb-22 23:07N 25°47' W 069°20'0 0.0 24.0
2017-Feb-22 23:02N 25°47' W 069°20'0 0.0 24.0
2017-Feb-22 22:24N 25°47' W 069°20'0 0.0 24.0
2017-Feb-22 22:19N 25°47' W 069°20'1 1.0 24.0
2017-Feb-22 21:47N 25°47' W 069°19'1 3.4 24.0
2017-Feb-22 21:25N 25°47' W 069°18'0 0.0 24.0
2017-Feb-22 20:24N 25°47' W 069°18'1 0.5 24.0
2017-Feb-22 18:46N 25°47' W 069°17'0 0.0 24.1
2017-Feb-22 18:43N 25°47' W 069°17'114.8 24.1
2017-Feb-22 18:38N 25°47' W 069°16'1 0.3 24.1
2017-Feb-22 15:39N 25°48' W 069°16'0 0.0 24.1
2017-Feb-22 15:36N 25°48' W 069°16'0 0.0 24.1
2017-Feb-22 14:51N 25°48' W 069°16'116.1 24.1
2017-Feb-22 14:48N 25°47' W 069°15'0 0.0 24.1
2017-Feb-22 13:59N 25°47' W 069°15'0 0.0 24.1
2017-Feb-22 13:58N 25°47' W 069°15'1 0.7 24.1
2017-Feb-22 13:12N 25°47' W 069°14'1 6.0 24.1
2017-Feb-22 13:06N 25°48' W 069°14'0 0.0 24.1
2017-Feb-22 12:44N 25°48' W 069°14'0 0.0 24.1
2017-Feb-22 12:39N 25°48' W 069°14'0 0.0 24.1
2017-Feb-22 12:12N 25°48' W 069°14'0 0.0 24.1
2017-Feb-22 11:06N 25°48' W 069°14'124.2 24.1
2017-Feb-22 11:04N 25°47' W 069°14'0 0.0 24.1
2017-Feb-22 10:57N 25°47' W 069°14'0 0.0 24.1
2017-Feb-22 10:48N 25°47' W 069°14'0 0.0 24.1
2017-Feb-22 10:31N 25°47' W 069°14'1 0.8 24.1
2017-Feb-22 09:06N 25°47' W 069°13'116.2 24.1
2017-Feb-22 09:02N 25°47' W 069°11'0 0.0 24.1
2017-Feb-22 08:59N 25°47' W 069°11'0 0.0 24.1
2017-Feb-22 07:22N 25°47' W 069°11'438.3 24.1
2017-Feb-22 07:16N 25°48' W 069°07'0 0.0 24.1
2017-Feb-22 03:14N 25°48' W 069°07'1 4.1 24.2
2017-Feb-22 03:06N 25°48' W 069°07'1 2.0 24.2
2017-Feb-22 02:28N 25°49' W 069°05'0 0.0 24.2
2017-Feb-22 02:25N 25°49' W 069°05'1 4.6 24.2
2017-Feb-22 02:18N 25°49' W 069°05'0 0.0 24.2
2017-Feb-22 01:34N 25°49' W 069°05'1 8.2 24.2
2017-Feb-22 01:25N 25°49' W 069°04'0 0.0 24.2
2017-Feb-22 00:46N 25°49' W 069°04'112.0 24.2
2017-Feb-22 00:43N 25°50' W 069°04'0 0.0 24.2
2017-Feb-22 00:19N 25°50' W 069°04'1 9.7 24.2
2017-Feb-22 00:14N 25°49' W 069°03'1 2.1 24.2
2017-Feb-21 23:51N 25°50' W 069°02'0 0.0 24.2
2017-Feb-21 23:47N 25°50' W 069°02'0 0.0 24.2
2017-Feb-21 23:41N 25°50' W 069°02'0 0.0 24.2
2017-Feb-21 23:34N 25°50' W 069°02'1 0.6 24.2
2017-Feb-21 22:39N 25°50' W 069°02'0 0.0 24.2
2017-Feb-21 22:30N 25°50' W 069°02'1 2.1 24.2
2017-Feb-21 22:13N 25°50' W 069°02'1 2.7 24.2
2017-Feb-21 22:01N 25°50' W 069°01'1 0.9 24.2
2017-Feb-21 20:38N 25°51' W 069°00'0 0.0 24.2
2017-Feb-21 20:35N 25°51' W 069°00'2 0.9 24.2
2017-Feb-21 18:52N 25°52' W 068°59'110.8 24.3
2017-Feb-21 18:49N 25°52' W 068°58'3 1.0 24.3
2017-Feb-21 15:57N 25°55' W 068°56'1 1.2 24.3
2017-Feb-21 15:15N 25°55' W 068°56'1 6.5 24.3
2017-Feb-21 15:10N 25°55' W 068°56'1 0.9 24.3
2017-Feb-21 14:18N 25°56' W 068°57'1 8.1 24.3
2017-Feb-21 14:12N 25°55' W 068°56'1 1.2 24.3
2017-Feb-21 13:33N 25°56' W 068°56'0 0.0 24.2
2017-Feb-21 13:29N 25°56' W 068°56'1 1.5 24.2
2017-Feb-21 12:57N 25°56' W 068°55'1 7.2 24.2
2017-Feb-21 12:52N 25°56' W 068°55'0 0.0 24.2
2017-Feb-21 12:47N 25°56' W 068°55'0 0.0 24.2
2017-Feb-21 12:37N 25°56' W 068°55'1 0.8 24.2
2017-Feb-21 11:20N 25°56' W 068°54'112.0 24.2
2017-Feb-21 11:17N 25°56' W 068°54'1 3.6 24.2
2017-Feb-21 11:08N 25°56' W 068°53'0 0.0 24.2
2017-Feb-21 10:52N 25°56' W 068°53'1 0.4 24.2
2017-Feb-21 09:39N 25°56' W 068°53'1 6.5 24.2
2017-Feb-21 09:34N 25°56' W 068°52'1 1.8 24.2
2017-Feb-21 09:16N 25°56' W 068°53'112.9 24.2
2017-Feb-21 09:11N 25°56' W 068°52'0 0.0 24.2
2017-Feb-21 07:36N 25°56' W 068°52'321.9 24.2
2017-Feb-21 07:27N 25°57' W 068°48'0 0.0 24.2
2017-Feb-21 03:31N 25°57' W 068°48'1 0.8 24.1
2017-Feb-21 02:48N 25°58' W 068°48'0 0.0 24.1
2017-Feb-21 02:45N 25°58' W 068°48'1 0.6 24.1
2017-Feb-21 01:53N 25°58' W 068°47'0 0.0 24.1
2017-Feb-21 01:48N 25°58' W 068°47'1 1.6 24.1
2017-Feb-21 01:07N 25°58' W 068°46'1 6.5 24.1
2017-Feb-21 01:02N 25°58' W 068°47'1 2.2 24.1
2017-Feb-21 00:28N 25°58' W 068°46'116.1 24.1
2017-Feb-21 00:25N 25°58' W 068°46'1 2.7 24.1
2017-Feb-21 00:13N 25°58' W 068°46'212.1 24.1
2017-Feb-21 00:05N 25°59' W 068°44'0 0.0 24.1
2017-Feb-20 22:47N 25°59' W 068°44'1 6.5 24.1
2017-Feb-20 22:42N 25°59' W 068°44'0 0.0 24.1
2017-Feb-20 22:36N 25°59' W 068°44'0 0.0 24.2
2017-Feb-20 22:30N 25°59' W 068°44'2 1.4 24.2
2017-Feb-20 21:03N 26°00' W 068°42'0 0.0 24.2
2017-Feb-20 20:46N 26°00' W 068°42'1 0.8 24.2
2017-Feb-20 19:06N 26°01' W 068°41'220.1 24.4
2017-Feb-20 19:00N 26°02' W 068°40'1 0.5 24.4
2017-Feb-20 17:22N 26°03' W 068°39'0 0.0
2017-Feb-20 16:16N 26°03' W 068°39'0 0.0 24.4
2017-Feb-20 15:30N 26°03' W 068°39'0 0.0 24.4
2017-Feb-20 14:41N 26°03' W 068°39'0 0.0 24.3
2017-Feb-20 14:35N 26°03' W 068°39'0 0.0 24.3
2017-Feb-20 13:47N 26°03' W 068°39'1 1.1 24.3
2017-Feb-20 13:04N 26°04' W 068°38'1 6.0 24.3
2017-Feb-20 12:58N 26°03' W 068°38'0 0.0 24.3
2017-Feb-20 12:51N 26°03' W 068°38'0 0.0 24.3
2017-Feb-20 11:49N 26°03' W 068°38'0 0.0 24.3
2017-Feb-20 11:46N 26°03' W 068°38'1 3.2 24.3
2017-Feb-20 11:31N 26°04' W 068°39'1 3.6 24.3
2017-Feb-20 11:22N 26°04' W 068°38'1 0.5 24.3
2017-Feb-20 10:07N 26°03' W 068°38'1 9.0 24.3
2017-Feb-20 10:03N 26°02' W 068°38'0 0.0 24.3
2017-Feb-20 09:44N 26°02' W 068°38'0 0.0 24.3
2017-Feb-20 09:27N 26°02' W 068°38'110.8 24.3
2017-Feb-20 09:24N 26°02' W 068°39'1 0.9 24.3
2017-Feb-20 08:30N 26°02' W 068°38'1 1.2 24.3
2017-Feb-20 07:49N 26°01' W 068°38'1 6.1 24.2
2017-Feb-20 07:41N 26°01' W 068°37'0 0.0 24.2
2017-Feb-20 06:04N 26°01' W 068°37'2 0.8 24.2
2017-Feb-20 03:03N 25°58' W 068°37'1 0.8 24.2
2017-Feb-20 02:16N 25°58' W 068°37'1 3.6 24.2
2017-Feb-20 02:07N 25°58' W 068°36'0 0.0 24.2
2017-Feb-20 01:28N 25°58' W 068°36'1 6.9 24.2
2017-Feb-20 01:21N 25°57' W 068°35'0 0.0 24.2
2017-Feb-20 00:39N 25°57' W 068°35'118.5 24.2
2017-Feb-20 00:35N 25°56' W 068°34'0 0.0 24.2
2017-Feb-20 00:28N 25°56' W 068°34'0 0.0 24.2
2017-Feb-19 23:03N 25°56' W 068°34'116.2 24.2
2017-Feb-19 23:01N 25°56' W 068°35'211.5 24.2
2017-Feb-19 22:52N 25°56' W 068°33'0 0.0 24.2
2017-Feb-19 21:21N 25°56' W 068°33'0 0.0 24.2
2017-Feb-19 21:12N 25°56' W 068°33'1 2.2 24.2
2017-Feb-19 20:57N 25°56' W 068°34'2 1.0 24.2
2017-Feb-19 19:20N 25°55' W 068°32'1 8.2 24.2
2017-Feb-19 19:11N 25°54' W 068°31'0 0.0 24.2
2017-Feb-19 17:38N 25°54' W 068°31'2 1.4 24.2
2017-Feb-19 15:52N 25°52' W 068°29'1 6.5 24.1
2017-Feb-19 15:47N 25°52' W 068°29'0 0.0 24.1
2017-Feb-19 15:00N 25°52' W 068°29'0 0.0 24.1
2017-Feb-19 14:57N 25°52' W 068°29'1 0.9 24.1
2017-Feb-19 14:15N 25°52' W 068°29'0 0.0 24.1
2017-Feb-19 14:12N 25°52' W 068°29'1 5.4 24.1
2017-Feb-19 14:06N 25°52' W 068°28'0 0.0 24.1
2017-Feb-19 13:18N 25°52' W 068°28'1 0.8 24.0
2017-Feb-19 12:16N 25°51' W 068°28'0 0.0 24.0
2017-Feb-19 11:48N 25°51' W 068°28'112.4 24.0
2017-Feb-19 11:42N 25°50' W 068°26'0 0.0 24.0
2017-Feb-19 11:36N 25°50' W 068°26'0 0.0 24.0
2017-Feb-19 11:31N 25°50' W 068°26'0 0.0 24.0
2017-Feb-19 10:37N 25°50' W 068°26'112.0 24.0
2017-Feb-19 10:34N 25°50' W 068°26'0 0.0 24.0
2017-Feb-19 10:05N 25°50' W 068°26'0 0.0 24.0
2017-Feb-19 10:01N 25°50' W 068°26'0 0.0 24.0
2017-Feb-19 09:56N 25°50' W 068°26'0 0.0 24.0
2017-Feb-19 09:36N 25°50' W 068°26'1 1.4 24.0
2017-Feb-19 09:02N 25°49' W 068°26'1 5.4 24.0
2017-Feb-19 08:56N 25°49' W 068°25'0 0.0 24.0
2017-Feb-19 07:59N 25°49' W 068°25'1 6.9 24.0
2017-Feb-19 07:52N 25°49' W 068°25'0 0.0 24.0
2017-Feb-19 06:18N 25°49' W 068°25'356.2 24.0
2017-Feb-19 06:15N 25°47' W 068°22'0 0.0 24.0
2017-Feb-19 03:23N 25°47' W 068°22'0 0.0 24.1
2017-Feb-19 02:36N 25°47' W 068°22'0 0.0 24.1
2017-Feb-19 02:31N 25°47' W 068°22'1 1.7 24.1
2017-Feb-19 01:48N 25°46' W 068°21'0 0.0 24.1
2017-Feb-19 01:42N 25°46' W 068°21'1 1.1 24.1
2017-Feb-19 00:56N 25°46' W 068°20'1 4.6 24.1
2017-Feb-19 00:49N 25°46' W 068°20'0 0.0 24.1
2017-Feb-18 23:34N 25°46' W 068°20'0 0.0 24.2
2017-Feb-18 23:27N 25°46' W 068°20'0 0.0 24.2
2017-Feb-18 23:23N 25°46' W 068°20'0 0.0 24.2
2017-Feb-18 23:06N 25°46' W 068°20'1 0.9 24.2
2017-Feb-18 21:52N 25°46' W 068°19'0 0.0 24.2
2017-Feb-18 21:46N 25°46' W 068°19'1 4.6 24.2
2017-Feb-18 21:39N 25°46' W 068°18'0 0.0 24.2
2017-Feb-18 21:31N 25°46' W 068°18'1 6.0 24.2
2017-Feb-18 21:25N 25°45' W 068°18'0 0.0
2017-Feb-18 21:06N 25°45' W 068°18'1 0.8 24.3
2017-Feb-18 19:31N 25°46' W 068°17'0 0.0 24.4
2017-Feb-18 19:24N 25°46' W 068°17'1 0.3 24.4
2017-Feb-18 17:50N 25°46' W 068°16'0 0.0 24.3
2017-Feb-18 17:44N 25°46' W 068°16'1 0.4 24.3
2017-Feb-18 16:12N 25°46' W 068°16'0 0.0 24.3
2017-Feb-18 15:21N 25°46' W 068°16'112.0
2017-Feb-18 15:18N 25°46' W 068°16'112.0 24.2
2017-Feb-18 15:15N 25°46' W 068°16'0 0.0 24.2
2017-Feb-18 14:34N 25°46' W 068°16'1 6.5 24.2
2017-Feb-18 14:29N 25°46' W 068°16'0 0.0 24.2
2017-Feb-18 13:40N 25°46' W 068°16'112.0 24.2
2017-Feb-18 13:37N 25°46' W 068°16'0 0.0 24.2
2017-Feb-18 13:29N 25°46' W 068°16'0 0.0 24.2
2017-Feb-18 12:51N 25°46' W 068°16'1 0.8
2017-Feb-18 12:07N 25°46' W 068°16'1 2.0 24.2
2017-Feb-18 11:51N 25°46' W 068°16'110.8 24.2
2017-Feb-18 11:48N 25°46' W 068°16'0 0.0 24.2
2017-Feb-18 11:45N 25°46' W 068°16'0 0.0 24.2
2017-Feb-18 11:10N 25°46' W 068°16'1 0.9 24.2
2017-Feb-18 10:32N 25°47' W 068°16'1 1.9 24.2
2017-Feb-18 10:13N 25°46' W 068°16'1 4.5 24.2
2017-Feb-18 10:05N 25°47' W 068°16'0 0.0 24.2
2017-Feb-18 09:49N 25°47' W 068°16'1 2.1 24.2
2017-Feb-18 09:32N 25°46' W 068°16'1 7.2 24.2
2017-Feb-18 09:27N 25°47' W 068°16'0 0.0 24.2
2017-Feb-18 08:06N 25°47' W 068°16'1 0.3 24.2
2017-Feb-18 06:31N 25°47' W 068°16'1 6.5 24.2
2017-Feb-18 06:26N 25°47' W 068°17'1 0.2 24.2
2017-Feb-18 02:52N 25°47' W 068°17'1 0.7 24.2
2017-Feb-18 02:06N 25°47' W 068°17'1 8.1 24.3
2017-Feb-18 02:02N 25°47' W 068°17'0 0.0 24.3
2017-Feb-18 01:18N 25°47' W 068°17'0 0.0 24.3
2017-Feb-18 01:07N 25°47' W 068°17'1 1.0 24.3
2017-Feb-18 00:30N 25°46' W 068°17'0 0.0 24.3
2017-Feb-18 00:04N 25°46' W 068°17'0 0.0 24.3
2017-Feb-18 00:00N 25°46' W 068°17'1 2.3 24.3
2017-Feb-17 23:44N 25°47' W 068°17'0 0.0 24.4
2017-Feb-17 23:25N 25°47' W 068°17'0 0.0 24.4
2017-Feb-17 23:21N 25°47' W 068°17'0 0.0 24.4
2017-Feb-17 23:12N 25°47' W 068°17'0 0.0 24.4
2017-Feb-17 22:23N 25°47' W 068°17'0 0.0 24.4
2017-Feb-17 22:06N 25°47' W 068°17'110.8 24.4
2017-Feb-17 22:03N 25°47' W 068°17'0 0.0 24.4
2017-Feb-17 21:43N 25°47' W 068°17'0 0.0 24.4
2017-Feb-17 21:40N 25°47' W 068°17'110.8 24.4
2017-Feb-17 21:37N 25°47' W 068°16'1 2.7 24.4
2017-Feb-17 21:19N 25°47' W 068°17'0 0.0 24.4
2017-Feb-17 20:28N 25°47' W 068°17'0 0.0 24.4
2017-Feb-17 19:44N 25°47' W 068°17'0 0.0 24.4
2017-Feb-17 19:41N 25°47' W 068°17'112.4 24.4
2017-Feb-17 19:35N 25°48' W 068°16'0 0.0 24.4
2017-Feb-17 18:03N 25°48' W 068°16'1 6.1 24.4
2017-Feb-17 17:55N 25°49' W 068°16'1 0.3 24.4
2017-Feb-17 15:41N 25°48' W 068°16'126.3 24.4
2017-Feb-17 15:38N 25°49' W 068°16'0 0.0 24.4
2017-Feb-17 14:57N 25°49' W 068°16'1 8.1 24.4
2017-Feb-17 14:51N 25°50' W 068°16'0 0.0 24.4
2017-Feb-17 14:02N 25°50' W 068°16'0 0.0 24.4
2017-Feb-17 13:16N 25°50' W 068°16'0 0.0 24.4
2017-Feb-17 13:10N 25°50' W 068°16'   24.4

Dump ship's entire track history